Time;durP1;ratioP1;P1;durP2;ratioP2;P2;SDS_P1;SDS_P2;PMS_P1;PMS_P2;Temp;Humidity;BMP_temperature;BMP_pressure;BME280_temperature;BME280_humidity;BME280_pressure;Samples;Min_cycle;Max_cycle;Signal;HPM_P1;HPM_P2
2023/04/08 00:00:21;;;;;;;;;;;;;;;7.16;55.02;94699.34;5064379;23;20336;-76
2023/04/08 00:02:22;;;;;;;;;;;;;;;7.22;54.96;94700.59;5063775;23;20403;-78
2023/04/08 00:04:25;;;;;;;;;;;;;;;7.22;55.17;94701.41;5037911;23;20392;-78
2023/04/08 00:06:26;;;;;;;;;;;;;;;7.24;54.80;94693.47;5065334;23;20387;-81
2023/04/08 00:08:28;;;;;;;;;;;;;;;7.24;54.89;94696.06;5063930;23;19976;-73
2023/04/08 00:10:29;;;;;;;;;;;;;;;7.27;54.58;94698.38;5063622;23;20292;-72
2023/04/08 00:12:31;;;;;;;;;;;;;;;7.27;54.72;94709.66;5038837;23;19921;-72
2023/04/08 00:14:33;;;;;;;;;;;;;;;7.24;54.88;94704.69;5064409;23;20004;-77
2023/04/08 00:16:35;;;;;;;;;;;;;;;7.23;54.78;94703.06;5038005;23;19921;-79
2023/04/08 00:18:37;;;;;;;;;;;;;;;7.27;54.77;94695.78;5015077;23;19922;-79
2023/04/08 00:20:38;;;;;;;;;;;;;;;7.31;54.35;94695.38;5065286;23;19925;-79
2023/04/08 00:22:40;;;;;;;;;;;;;;;7.32;54.57;94690.97;5065495;23;19943;-78
2023/04/08 00:24:41;;;;;;;;;;;;;;;7.36;54.35;94693.16;5066452;23;19927;-77
2023/04/08 00:26:43;;;;;;;;;;;;;;;7.35;54.58;94690.69;5039705;23;19965;-77
2023/04/08 00:28:45;;;;;;;;;;;;;;;7.33;54.56;94695.22;5066785;23;19949;-80
2023/04/08 00:30:47;;;;;;;;;;;;;;;7.31;54.43;94691.94;5065486;23;19928;-80
2023/04/08 00:32:48;;;;;;;;;;;;;;;7.32;54.43;94694.41;5065587;23;19924;-77
2023/04/08 00:34:50;;;;;;;;;;;;;;;7.26;54.53;94687.13;5066006;23;19921;-78
2023/04/08 00:36:51;;;;;;;;;;;;;;;7.27;54.63;94688.81;5066078;23;19921;-78
2023/04/08 00:38:53;;;;;;;;;;;;;;;7.29;55.07;94696.47;5066072;23;19932;-80
2023/04/08 00:40:54;;;;;;;;;;;;;;;7.27;54.88;94695.78;5066265;23;19920;-74
2023/04/08 00:42:57;;;;;;;;;;;;;;;7.22;55.39;94696.19;5065463;23;20409;-72
2023/04/08 00:44:58;;;;;;;;;;;;;;;7.24;54.93;94701.28;5064984;23;19925;-73
2023/04/08 00:47:00;;;;;;;;;;;;;;;7.27;55.12;94694.00;5036988;23;19973;-72
2023/04/08 00:49:01;;;;;;;;;;;;;;;7.26;54.77;94699.34;5039557;23;19921;-73
2023/04/08 00:51:03;;;;;;;;;;;;;;;7.26;55.04;94694.13;5066087;23;20303;-73
2023/04/08 00:53:05;;;;;;;;;;;;;;;7.26;55.07;94699.34;5064696;23;19921;-71
2023/04/08 00:55:06;;;;;;;;;;;;;;;7.28;55.21;94697.44;5065496;23;20376;-73
2023/04/08 00:57:08;;;;;;;;;;;;;;;7.30;55.05;94695.50;5065132;23;19929;-72
2023/04/08 00:59:09;;;;;;;;;;;;;;;7.18;55.27;94705.25;5038992;23;19921;-71
2023/04/08 01:01:16;;;;;;;;;;;;;;;7.08;55.37;94707.06;5064408;23;19925;-71
2023/04/08 01:03:19;;;;;;;;;;;;;;;7.00;55.89;94704.31;5038916;23;19984;-71
2023/04/08 01:05:24;;;;;;;;;;;;;;;6.97;56.08;94708.81;5016097;23;20566;-72
2023/04/08 01:07:27;;;;;;;;;;;;;;;6.94;56.23;94703.88;5065254;23;19952;-72
2023/04/08 01:09:29;;;;;;;;;;;;;;;6.98;56.26;94704.44;5039246;23;19925;-74
2023/04/08 01:11:31;;;;;;;;;;;;;;;7.00;56.09;94704.31;5038863;23;20407;-72
2023/04/08 01:13:34;;;;;;;;;;;;;;;6.95;56.25;94704.72;5040000;23;20297;-72
2023/04/08 01:15:37;;;;;;;;;;;;;;;6.98;56.27;94713.06;5039187;23;19925;-72
2023/04/08 01:17:39;;;;;;;;;;;;;;;7.02;55.56;94708.41;5062566;23;19925;-72
2023/04/08 01:19:43;;;;;;;;;;;;;;;7.05;55.81;94705.53;5038892;23;20475;-71
2023/04/08 01:21:45;;;;;;;;;;;;;;;7.03;55.60;94707.44;5065879;23;20015;-76
2023/04/08 01:24:01;;;;;;;;;;;;;;;7.04;55.48;94708.28;5039738;23;19929;-74
2023/04/08 01:26:02;;;;;;;;;;;;;;;7.09;56.02;94711.28;5039473;23;19925;-76
2023/04/08 01:28:11;;;;;;;;;;;;;;;7.15;56.44;94702.94;5065710;23;20296;-77
2023/04/08 01:30:12;;;;;;;;;;;;;;;7.17;56.22;94708.81;5039764;23;19929;-78
2023/04/08 01:32:14;;;;;;;;;;;;;;;7.21;55.56;94710.19;5064115;23;19956;-78
2023/04/08 01:34:15;;;;;;;;;;;;;;;7.23;55.55;94705.66;5064698;23;19945;-78
2023/04/08 01:36:17;;;;;;;;;;;;;;;7.23;55.80;94703.06;5040040;23;20079;-78
2023/04/08 01:38:19;;;;;;;;;;;;;;;7.26;56.01;94707.16;5015707;23;20358;-78
2023/04/08 01:40:20;;;;;;;;;;;;;;;7.26;55.94;94712.38;5039812;23;20308;-78
2023/04/08 01:42:22;;;;;;;;;;;;;;;7.26;56.08;94705.38;5064904;23;19944;-77
2023/04/08 01:44:25;;;;;;;;;;;;;;;7.22;55.77;94706.63;5039231;23;19998;-78
2023/04/08 01:46:26;;;;;;;;;;;;;;;7.21;55.93;94712.81;5016273;23;19980;-77
2023/04/08 01:48:28;;;;;;;;;;;;;;;7.22;56.32;94709.22;5064750;23;19955;-79
2023/04/08 01:50:29;;;;;;;;;;;;;;;7.12;56.64;94709.25;5065291;23;20320;-77
2023/04/08 01:52:31;;;;;;;;;;;;;;;7.09;56.47;94709.50;5039105;23;19953;-75
2023/04/08 01:54:34;;;;;;;;;;;;;;;7.06;56.61;94711.56;5039999;23;19921;-77
2023/04/08 01:56:39;;;;;;;;;;;;;;;7.05;56.25;94707.31;5065353;23;19960;-76
2023/04/08 01:58:41;;;;;;;;;;;;;;;7.09;56.35;94719.91;5064939;23;20308;-78
2023/04/08 02:00:42;;;;;;;;;;;;;;;7.04;56.58;94724.72;5064418;23;19949;-77
2023/04/08 02:02:45;;;;;;;;;;;;;;;7.05;56.05;94717.72;5064211;23;19925;-79
2023/04/08 02:04:47;;;;;;;;;;;;;;;7.02;55.88;94718.00;5065725;23;19921;-77
2023/04/08 02:06:49;;;;;;;;;;;;;;;7.03;55.98;94725.66;5065523;23;19921;-77
2023/04/08 02:08:51;;;;;;;;;;;;;;;7.12;55.82;94727.47;5064994;23;19976;-71
2023/04/08 02:10:53;;;;;;;;;;;;;;;7.15;55.46;94727.19;5038781;23;19997;-73
2023/04/08 02:12:54;;;;;;;;;;;;;;;7.23;54.95;94731.72;5064415;23;20230;-73
2023/04/08 02:14:56;;;;;;;;;;;;;;;7.07;55.49;94729.66;5064769;23;19929;-77
2023/04/08 02:17:05;;;;;;;;;;;;;;;6.67;57.13;94742.78;5038702;23;19925;-76
2023/04/08 02:19:11;;;;;;;;;;;;;;;6.04;59.40;94741.19;5039828;23;19930;-72
2023/04/08 02:21:13;;;;;;;;;;;;;;;6.04;59.76;94735.19;5039171;23;19964;-71
2023/04/08 02:23:17;;;;;;;;;;;;;;;5.77;60.25;94746.13;5064830;23;19925;-73
2023/04/08 02:25:21;;;;;;;;;;;;;;;5.58;61.20;94745.03;5039500;23;20528;-71
2023/04/08 02:27:22;;;;;;;;;;;;;;;5.30;61.91;94744.72;5064785;23;19925;-71
2023/04/08 02:29:24;;;;;;;;;;;;;;;5.21;62.25;94742.06;5038514;23;20316;-72
2023/04/08 02:31:25;;;;;;;;;;;;;;;5.36;62.73;94739.97;5039493;23;19952;-70
2023/04/08 02:33:27;;;;;;;;;;;;;;;5.54;62.14;94735.84;5063738;23;19928;-71
2023/04/08 02:35:29;;;;;;;;;;;;;;;5.33;61.72;94736.69;5064960;23;20463;-72
2023/04/08 02:37:31;;;;;;;;;;;;;;;4.84;62.97;94735.47;5039416;23;19957;-76
2023/04/08 02:39:32;;;;;;;;;;;;;;;4.55;64.16;94750.75;5064479;23;19956;-77
2023/04/08 02:41:34;;;;;;;;;;;;;;;4.63;64.60;94739.78;5064753;23;19928;-77
2023/04/08 02:43:35;;;;;;;;;;;;;;;4.78;64.32;94740.34;5064900;23;19925;-77
2023/04/08 02:45:37;;;;;;;;;;;;;;;5.04;64.14;94739.06;5064443;23;19992;-78
2023/04/08 02:47:39;;;;;;;;;;;;;;;5.34;63.34;94734.91;5038440;23;19927;-78
2023/04/08 02:49:41;;;;;;;;;;;;;;;5.31;61.84;94737.75;5065045;23;19968;-75
2023/04/08 02:51:42;;;;;;;;;;;;;;;4.87;63.26;94734.41;5039613;23;19921;-77
2023/04/08 02:53:44;;;;;;;;;;;;;;;4.62;64.38;94738.13;5064719;23;20292;-78
2023/04/08 02:55:45;;;;;;;;;;;;;;;4.46;64.43;94735.94;5064619;23;19925;-77
2023/04/08 02:57:47;;;;;;;;;;;;;;;4.56;64.84;94743.78;5063556;23;19951;-78
2023/04/08 02:59:49;;;;;;;;;;;;;;;4.65;65.13;94738.72;5036595;23;20241;-75
2023/04/08 03:01:50;;;;;;;;;;;;;;;4.80;64.08;94735.84;5061638;23;19921;-77
2023/04/08 03:03:52;;;;;;;;;;;;;;;4.79;63.88;94740.19;5063873;23;19921;-75
2023/04/08 03:05:54;;;;;;;;;;;;;;;4.90;64.29;94739.34;5064768;23;19952;-77
2023/04/08 03:07:56;;;;;;;;;;;;;;;5.03;63.97;94744.38;5039615;23;19968;-77
2023/04/08 03:09:58;;;;;;;;;;;;;;;5.10;63.44;94740.34;5064715;23;19929;-77
2023/04/08 03:12:00;;;;;;;;;;;;;;;4.95;63.36;94731.16;5063538;23;19921;-76
2023/04/08 03:14:03;;;;;;;;;;;;;;;5.02;63.78;94732.34;5063295;23;20411;-77
2023/04/08 03:16:05;;;;;;;;;;;;;;;5.02;63.40;94733.16;5063368;23;20055;-77
2023/04/08 03:18:06;;;;;;;;;;;;;;;5.15;63.78;94737.38;5063111;23;19921;-77
2023/04/08 03:20:08;;;;;;;;;;;;;;;5.22;63.01;94734.13;5038583;23;19921;-76
2023/04/08 03:22:09;;;;;;;;;;;;;;;5.35;62.44;94731.34;5039163;23;19925;-76
2023/04/08 03:24:11;;;;;;;;;;;;;;;5.52;62.36;94730.78;5038877;23;19925;-78
2023/04/08 03:26:13;;;;;;;;;;;;;;;5.72;61.78;94731.72;5039098;23;19973;-77
2023/04/08 03:28:14;;;;;;;;;;;;;;;5.90;60.62;94733.72;5064769;23;19925;-77
2023/04/08 03:30:16;;;;;;;;;;;;;;;6.03;60.40;94731.75;5063958;23;19921;-79
2023/04/08 03:32:18;;;;;;;;;;;;;;;6.13;59.99;94730.03;5063854;23;20043;-76
2023/04/08 03:34:19;;;;;;;;;;;;;;;6.25;59.68;94740.31;5064974;23;20011;-78
2023/04/08 03:36:21;;;;;;;;;;;;;;;6.34;59.57;94736.94;5065053;23;19941;-80
2023/04/08 03:38:22;;;;;;;;;;;;;;;6.42;59.18;94734.50;5065210;23;19969;-78
2023/04/08 03:40:24;;;;;;;;;;;;;;;6.51;58.79;94738.06;5037995;23;19925;-76
2023/04/08 03:42:26;;;;;;;;;;;;;;;6.53;58.68;94733.56;5064859;23;19921;-79
2023/04/08 03:44:27;;;;;;;;;;;;;;;6.50;58.64;94734.66;5064601;23;19921;-79
2023/04/08 03:46:29;;;;;;;;;;;;;;;6.47;59.21;94742.72;5065212;23;19936;-82
2023/04/08 03:48:31;;;;;;;;;;;;;;;6.28;59.10;94738.28;5038679;23;20291;-79
2023/04/08 03:50:32;;;;;;;;;;;;;;;6.21;59.57;94738.94;5065220;23;20487;-76
2023/04/08 03:52:34;;;;;;;;;;;;;;;6.22;59.84;94740.59;5064533;23;19921;-78
2023/04/08 03:54:35;;;;;;;;;;;;;;;6.26;59.66;94734.16;5065028;23;19956;-79
2023/04/08 03:56:37;;;;;;;;;;;;;;;6.26;59.36;94727.19;5039521;23;19984;-77
2023/04/08 03:58:38;;;;;;;;;;;;;;;6.35;59.89;94734.19;5065346;23;19962;-78
2023/04/08 04:00:40;;;;;;;;;;;;;;;6.48;59.12;94727.94;5039318;23;19921;-79
2023/04/08 04:02:41;;;;;;;;;;;;;;;6.56;58.65;94730.72;5066261;23;19927;-75
2023/04/08 04:04:43;;;;;;;;;;;;;;;6.62;58.70;94729.34;5063198;23;19928;-73
2023/04/08 04:06:45;;;;;;;;;;;;;;;6.69;58.53;94735.63;5062650;23;19921;-72
2023/04/08 04:08:46;;;;;;;;;;;;;;;6.71;58.55;94729.38;5038322;23;19960;-75
2023/04/08 04:10:48;;;;;;;;;;;;;;;6.78;58.18;94734.03;5064717;23;19920;-73
2023/04/08 04:12:50;;;;;;;;;;;;;;;6.79;57.99;94731.28;5065145;23;19925;-79
2023/04/08 04:14:51;;;;;;;;;;;;;;;6.76;58.29;94736.78;5064369;23;20004;-79
2023/04/08 04:16:53;;;;;;;;;;;;;;;6.75;58.38;94741.16;5040759;23;20288;-79
2023/04/08 04:18:54;;;;;;;;;;;;;;;6.76;58.50;94740.19;5066389;23;19927;-80
2023/04/08 04:20:56;;;;;;;;;;;;;;;6.81;58.32;94746.78;5067077;23;19921;-79
2023/04/08 04:22:58;;;;;;;;;;;;;;;6.77;58.58;94743.59;5065684;23;19921;-79
2023/04/08 04:24:59;;;;;;;;;;;;;;;6.74;58.51;94744.69;5065765;23;19925;-80
2023/04/08 04:27:01;;;;;;;;;;;;;;;6.58;58.72;94744.38;5067695;23;19921;-78
2023/04/08 04:29:02;;;;;;;;;;;;;;;6.25;59.90;94751.56;5040992;23;19982;-79
2023/04/08 04:31:04;;;;;;;;;;;;;;;6.00;60.66;94750.22;5066061;23;19937;-78
2023/04/08 04:33:06;;;;;;;;;;;;;;;5.79;61.09;94746.81;5038760;23;20427;-79
2023/04/08 04:35:10;;;;;;;;;;;;;;;5.40;62.51;94751.75;5063821;23;19921;-73
2023/04/08 04:37:12;;;;;;;;;;;;;;;5.18;62.88;94750.09;5037061;23;19930;-73
2023/04/08 04:39:14;;;;;;;;;;;;;;;5.05;64.23;94753.66;5039112;23;19932;-73
2023/04/08 04:41:16;;;;;;;;;;;;;;;5.02;64.23;94742.72;5064648;23;19933;-74
2023/04/08 04:43:17;;;;;;;;;;;;;;;4.87;63.89;94763.78;5063626;23;19984;-72
2023/04/08 04:45:19;;;;;;;;;;;;;;;4.84;64.98;94755.41;5035412;23;20337;-71
2023/04/08 04:47:20;;;;;;;;;;;;;;;4.80;64.70;94759.22;5061052;23;19925;-73
2023/04/08 04:49:22;;;;;;;;;;;;;;;4.69;65.16;94754.88;5036168;23;19925;-74
2023/04/08 04:51:23;;;;;;;;;;;;;;;4.60;65.19;94748.63;5035867;23;19921;-73
2023/04/08 04:53:25;;;;;;;;;;;;;;;4.79;65.13;94758.38;5061768;23;20623;-74
2023/04/08 04:55:26;;;;;;;;;;;;;;;5.06;64.83;94754.50;5035897;23;19996;-73
2023/04/08 04:57:28;;;;;;;;;;;;;;;5.37;64.09;94758.03;5060796;23;19925;-72
2023/04/08 04:59:29;;;;;;;;;;;;;;;5.62;62.84;94758.63;5061274;23;20343;-74
2023/04/08 05:01:31;;;;;;;;;;;;;;;5.81;61.81;94758.72;5064134;23;19925;-74
2023/04/08 05:03:33;;;;;;;;;;;;;;;6.01;61.60;94762.28;5039642;23;19922;-79
2023/04/08 05:05:34;;;;;;;;;;;;;;;6.17;60.97;94761.78;5041152;23;19925;-77
2023/04/08 05:07:36;;;;;;;;;;;;;;;6.32;60.59;94754.44;5063549;23;20423;-73
2023/04/08 05:09:38;;;;;;;;;;;;;;;6.38;59.76;94756.53;5064493;23;19924;-74
2023/04/08 05:11:39;;;;;;;;;;;;;;;6.50;59.92;94758.09;5065956;23;19925;-73
2023/04/08 05:13:41;;;;;;;;;;;;;;;6.63;59.54;94762.22;5040431;23;19921;-73
2023/04/08 05:15:44;;;;;;;;;;;;;;;6.69;59.27;94759.91;5064426;23;19928;-73
2023/04/08 05:17:46;;;;;;;;;;;;;;;6.62;59.00;94765.78;5039092;23;19929;-71
2023/04/08 05:19:47;;;;;;;;;;;;;;;6.44;59.65;94757.78;5065810;23;20292;-73
2023/04/08 05:21:49;;;;;;;;;;;;;;;6.40;59.77;94767.63;5065935;23;19976;-72
2023/04/08 05:23:52;;;;;;;;;;;;;;;6.11;60.55;94757.94;5066050;23;19928;-72
2023/04/08 05:25:54;;;;;;;;;;;;;;;6.02;61.13;94756.09;5065585;23;19987;-73
2023/04/08 05:27:56;;;;;;;;;;;;;;;6.10;60.51;94755.47;5065931;23;19956;-74
2023/04/08 05:29:57;;;;;;;;;;;;;;;6.06;61.02;94762.69;5064672;23;20300;-73
2023/04/08 05:31:59;;;;;;;;;;;;;;;6.18;60.85;94754.81;5065102;23;20004;-73
2023/04/08 05:34:00;;;;;;;;;;;;;;;6.28;60.19;94761.72;5065816;23;19925;-73
2023/04/08 05:36:02;;;;;;;;;;;;;;;6.24;60.42;94765.53;5066109;23;19947;-75
2023/04/08 05:38:04;;;;;;;;;;;;;;;6.34;59.91;94761.16;5039879;23;19925;-77
2023/04/08 05:40:05;;;;;;;;;;;;;;;6.16;60.61;94760.16;5065441;23;19936;-74
2023/04/08 05:42:07;;;;;;;;;;;;;;;6.00;61.04;94757.19;5065395;23;19988;-73
2023/04/08 05:44:08;;;;;;;;;;;;;;;6.12;60.89;94762.19;5039950;23;19952;-75
2023/04/08 05:46:10;;;;;;;;;;;;;;;6.20;60.96;94760.72;5064884;23;19921;-72
2023/04/08 05:48:12;;;;;;;;;;;;;;;6.27;61.93;94764.44;5064966;23;20248;-73
2023/04/08 05:50:13;;;;;;;;;;;;;;;6.36;60.69;94759.25;5065530;23;19921;-73
2023/04/08 05:52:15;;;;;;;;;;;;;;;6.40;60.49;94766.81;5040838;23;19929;-76
2023/04/08 05:54:17;;;;;;;;;;;;;;;6.39;59.99;94763.41;5042628;23;19921;-77
2023/04/08 05:56:18;;;;;;;;;;;;;;;6.33;60.54;94756.94;5067042;23;19921;-79
2023/04/08 05:58:20;;;;;;;;;;;;;;;6.15;60.90;94761.09;5066413;23;19943;-79
2023/04/08 06:00:21;;;;;;;;;;;;;;;5.89;61.87;94755.47;5041385;23;20361;-80
2023/04/08 06:02:23;;;;;;;;;;;;;;;5.83;62.25;94753.38;5066381;23;20336;-79
2023/04/08 06:04:25;;;;;;;;;;;;;;;5.77;62.36;94749.53;5068416;23;19921;-79
2023/04/08 06:06:26;;;;;;;;;;;;;;;5.69;62.83;94755.34;5067725;23;19931;-80
2023/04/08 06:08:28;;;;;;;;;;;;;;;5.70;62.88;94753.56;5040849;23;19925;-80
2023/04/08 06:10:30;;;;;;;;;;;;;;;5.66;62.93;94753.03;5067433;23;20438;-77
2023/04/08 06:12:34;;;;;;;;;;;;;;;5.61;63.08;94754.34;5041279;23;19944;-78
2023/04/08 06:14:35;;;;;;;;;;;;;;;5.77;63.06;94748.72;5040333;23;19925;-80
2023/04/08 06:16:37;;;;;;;;;;;;;;;5.95;62.71;94752.38;5067771;23;19964;-80
2023/04/08 06:18:38;;;;;;;;;;;;;;;6.09;61.82;94754.66;5016561;23;20272;-79
2023/04/08 06:20:40;;;;;;;;;;;;;;;6.19;61.83;94753.84;5067857;23;20279;-79
2023/04/08 06:22:41;;;;;;;;;;;;;;;6.35;61.24;94759.41;5043124;23;20341;-79
2023/04/08 06:24:43;;;;;;;;;;;;;;;6.40;61.41;94751.19;5070319;23;19976;-77
2023/04/08 06:26:44;;;;;;;;;;;;;;;6.59;60.77;94760.84;5068646;23;19921;-79
2023/04/08 06:28:46;;;;;;;;;;;;;;;6.86;60.31;94757.59;5067242;23;19921;-79
2023/04/08 06:30:47;;;;;;;;;;;;;;;6.95;58.61;94751.59;5068184;23;19921;-77
2023/04/08 06:32:49;;;;;;;;;;;;;;;7.09;58.18;94752.97;5018452;23;19946;-78
2023/04/08 06:34:51;;;;;;;;;;;;;;;7.18;57.15;94757.34;5067049;23;20300;-76
2023/04/08 06:36:52;;;;;;;;;;;;;;;7.33;57.59;94757.75;5067577;23;19928;-79
2023/04/08 06:38:54;;;;;;;;;;;;;;;7.54;57.39;94757.63;5067335;23;19921;-79
2023/04/08 06:40:55;;;;;;;;;;;;;;;7.77;57.18;94758.97;5067394;23;19928;-80
2023/04/08 06:42:57;;;;;;;;;;;;;;;8.00;56.88;94758.63;5068457;23;19925;-80
2023/04/08 06:44:58;;;;;;;;;;;;;;;8.09;55.36;94756.97;5068970;23;19920;-82
2023/04/08 06:47:00;;;;;;;;;;;;;;;8.03;54.31;94760.97;5067379;23;19927;-80
2023/04/08 06:49:03;;;;;;;;;;;;;;;8.10;55.20;94754.19;5042098;23;20305;-78
2023/04/08 06:51:06;;;;;;;;;;;;;;;8.11;54.78;94758.47;5069061;23;20304;-79
2023/04/08 06:53:08;;;;;;;;;;;;;;;8.08;54.78;94755.31;5066817;23;19928;-80
2023/04/08 06:55:09;;;;;;;;;;;;;;;8.15;55.20;94762.44;5067203;23;20344;-78
2023/04/08 06:57:11;;;;;;;;;;;;;;;8.30;55.05;94760.19;5068248;23;20165;-79
2023/04/08 06:59:13;;;;;;;;;;;;;;;8.37;54.03;94755.22;5067977;23;19921;-80
2023/04/08 07:01:15;;;;;;;;;;;;;;;8.40;54.54;94755.75;5068147;23;19921;-79
2023/04/08 07:03:17;;;;;;;;;;;;;;;8.30;54.26;94762.81;5042072;23;20456;-81
2023/04/08 07:05:18;;;;;;;;;;;;;;;8.31;54.10;94761.81;5069881;23;19928;-79
2023/04/08 07:07:20;;;;;;;;;;;;;;;8.36;54.76;94758.78;5042510;23;19925;-81
2023/04/08 07:09:21;;;;;;;;;;;;;;;8.30;53.86;94752.34;5068874;23;19936;-79
2023/04/08 07:11:23;;;;;;;;;;;;;;;8.31;55.34;94761.81;5069044;23;20336;-81
2023/04/08 07:13:24;;;;;;;;;;;;;;;8.44;54.81;94761.53;5068851;23;19921;-79
2023/04/08 07:15:26;;;;;;;;;;;;;;;8.57;54.68;94767.22;5070873;23;19941;-79
2023/04/08 07:17:27;;;;;;;;;;;;;;;8.68;54.08;94762.78;5042687;23;19992;-78
2023/04/08 07:19:29;;;;;;;;;;;;;;;8.78;54.42;94767.00;5068281;23;19925;-78
2023/04/08 07:21:31;;;;;;;;;;;;;;;8.84;53.70;94765.59;5070014;23;19921;-80
2023/04/08 07:23:32;;;;;;;;;;;;;;;8.91;53.99;94763.22;5068842;23;19925;-81
2023/04/08 07:25:34;;;;;;;;;;;;;;;8.95;53.91;94769.78;5044928;23;19925;-80
2023/04/08 07:27:36;;;;;;;;;;;;;;;8.96;53.55;94774.84;5068216;23;19925;-79
2023/04/08 07:29:37;;;;;;;;;;;;;;;9.03;53.63;94772.47;5066797;23;19940;-81
2023/04/08 07:31:38;;;;;;;;;;;;;;;9.07;53.65;94771.19;5067117;23;19921;-78
2023/04/08 07:33:40;;;;;;;;;;;;;;;9.11;53.33;94780.38;5067362;23;19924;-78
2023/04/08 07:35:42;;;;;;;;;;;;;;;8.98;53.86;94780.75;5020294;23;20359;-81
2023/04/08 07:37:43;;;;;;;;;;;;;;;8.98;54.07;94780.75;5069956;23;19960;-79
2023/04/08 07:39:45;;;;;;;;;;;;;;;8.99;53.68;94774.56;5068194;23;19945;-81
2023/04/08 07:41:46;;;;;;;;;;;;;;;9.13;54.10;94782.88;5068410;23;20355;-78
2023/04/08 07:43:48;;;;;;;;;;;;;;;9.17;54.49;94784.22;5067909;23;19921;-79
2023/04/08 07:45:50;;;;;;;;;;;;;;;9.05;54.08;94785.38;5069889;23;19921;-80
2023/04/08 07:47:51;;;;;;;;;;;;;;;8.55;54.85;94784.00;5068489;23;19976;-81
2023/04/08 07:49:53;;;;;;;;;;;;;;;8.26;56.00;94794.53;5068492;23;20373;-80
2023/04/08 07:51:55;;;;;;;;;;;;;;;8.13;56.73;94790.47;5042078;23;19921;-80
2023/04/08 07:53:56;;;;;;;;;;;;;;;8.31;56.04;94794.94;5069082;23;19928;-81
2023/04/08 07:55:58;;;;;;;;;;;;;;;8.55;56.34;94797.88;5067461;23;19920;-81
2023/04/08 07:58:00;;;;;;;;;;;;;;;8.82;55.61;94794.47;5069152;23;20021;-82
2023/04/08 08:00:03;;;;;;;;;;;;;;;8.82;54.27;94806.72;5043400;23;19921;-82
2023/04/08 08:02:05;;;;;;;;;;;;;;;8.91;55.02;94808.44;5064998;23;20332;-77
2023/04/08 08:04:07;;;;;;;;;;;;;;;9.04;54.62;94802.06;5064842;23;19959;-74
2023/04/08 08:06:10;;;;;;;;;;;;;;;9.18;54.29;94807.59;5015622;23;19933;-74
2023/04/08 08:08:11;;;;;;;;;;;;;;;9.25;54.05;94805.22;5065885;23;19939;-78
2023/04/08 08:10:13;;;;;;;;;;;;;;;9.30;54.01;94807.38;5065597;23;19921;-77
2023/04/08 08:12:15;;;;;;;;;;;;;;;9.07;54.68;94804.34;5016111;23;19925;-78
2023/04/08 08:14:16;;;;;;;;;;;;;;;8.95;54.13;94801.94;5039389;23;19922;-77
2023/04/08 08:16:18;;;;;;;;;;;;;;;8.79;55.18;94801.75;5038784;23;19925;-74
2023/04/08 08:18:19;;;;;;;;;;;;;;;8.84;54.96;94802.16;5068942;23;19928;-83
2023/04/08 08:20:21;;;;;;;;;;;;;;;8.73;55.80;94802.34;5045472;23;20371;-79
2023/04/08 08:22:23;;;;;;;;;;;;;;;8.77;56.15;94803.69;5043477;23;19922;-81
2023/04/08 08:24:24;;;;;;;;;;;;;;;8.95;55.37;94806.38;5044544;23;19921;-83
2023/04/08 08:26:27;;;;;;;;;;;;;;;9.15;55.21;94804.44;5068494;23;20244;-74
2023/04/08 08:28:29;;;;;;;;;;;;;;;9.29;55.13;94809.19;5065220;23;19929;-76
2023/04/08 08:30:30;;;;;;;;;;;;;;;9.32;54.17;94808.06;5064015;23;19925;-75
2023/04/08 08:32:32;;;;;;;;;;;;;;;9.39;54.50;94806.47;5038776;23;19973;-77
2023/04/08 08:34:33;;;;;;;;;;;;;;;9.45;54.80;94807.69;5039652;23;19925;-75
2023/04/08 08:36:35;;;;;;;;;;;;;;;9.27;55.03;94810.28;5039768;23;19925;-74
2023/04/08 08:38:36;;;;;;;;;;;;;;;9.38;54.83;94803.03;5065164;23;19928;-74
2023/04/08 08:40:38;;;;;;;;;;;;;;;9.19;54.84;94805.81;5015397;23;19986;-73
2023/04/08 08:42:40;;;;;;;;;;;;;;;9.28;55.76;94804.91;5064786;23;19995;-77
2023/04/08 08:44:41;;;;;;;;;;;;;;;9.40;54.76;94800.28;5065286;23;19921;-74
2023/04/08 08:46:43;;;;;;;;;;;;;;;9.36;55.09;94801.56;5039901;23;19928;-73
2023/04/08 08:48:45;;;;;;;;;;;;;;;9.21;55.39;94803.88;5065894;23;20416;-75
2023/04/08 08:50:46;;;;;;;;;;;;;;;9.42;55.04;94798.31;5040846;23;20245;-76
2023/04/08 08:52:49;;;;;;;;;;;;;;;9.34;54.92;94791.25;5066687;23;20003;-75
2023/04/08 08:54:57;;;;;;;;;;;;;;;9.38;54.77;94795.22;5066369;23;19920;-72
2023/04/08 08:56:58;;;;;;;;;;;;;;;9.53;54.78;94792.03;5017154;23;19925;-75
2023/04/08 08:59:00;;;;;;;;;;;;;;;9.71;54.21;94797.28;5016509;23;20598;-72
2023/04/08 09:01:01;;;;;;;;;;;;;;;9.78;54.12;94804.34;5066171;23;19984;-74
2023/04/08 09:03:15;;;;;;;;;;;;;;;9.94;54.09;94795.81;5065280;23;19921;-75
2023/04/08 09:05:17;;;;;;;;;;;;;;;10.06;54.07;94801.63;5067191;23;19928;-76
2023/04/08 09:07:19;;;;;;;;;;;;;;;10.06;53.60;94799.00;5017676;23;19929;-76
2023/04/08 09:09:20;;;;;;;;;;;;;;;10.22;53.65;94803.53;5040885;23;20256;-76
2023/04/08 09:11:22;;;;;;;;;;;;;;;10.27;53.39;94803.88;5040540;23;19962;-74
2023/04/08 09:13:24;;;;;;;;;;;;;;;10.41;52.87;94805.97;5066185;23;19925;-75
2023/04/08 09:15:26;;;;;;;;;;;;;;;10.57;52.64;94802.59;5066219;23;20352;-76
2023/04/08 09:17:32;;;;;;;;;;;;;;;10.70;51.93;94801.38;5064920;23;19921;-75
2023/04/08 09:19:34;;;;;;;;;;;;;;;10.75;51.60;94799.91;5065380;23;20532;-76
2023/04/08 09:21:35;;;;;;;;;;;;;;;10.48;52.28;94806.16;5067429;23;19980;-81
2023/04/08 09:23:40;;;;;;;;;;;;;;;10.39;52.91;94799.22;5045257;23;19925;-80
2023/04/08 09:25:41;;;;;;;;;;;;;;;10.57;52.78;94797.38;5069050;23;19921;-84
2023/04/08 09:27:43;;;;;;;;;;;;;;;10.70;51.93;94799.56;5068913;23;19921;-82
2023/04/08 09:29:44;;;;;;;;;;;;;;;10.82;51.40;94793.06;5069250;23;19928;-81
2023/04/08 09:31:46;;;;;;;;;;;;;;;11.10;51.52;94794.59;5071372;23;19921;-79
2023/04/08 09:33:52;;;;;;;;;;;;;;;11.13;50.86;94792.50;5042983;23;19933;-81
2023/04/08 09:35:54;;;;;;;;;;;;;;;10.53;51.76;94787.38;5070725;23;19920;-81
2023/04/08 09:37:56;;;;;;;;;;;;;;;10.38;52.28;94790.56;5044800;23;19932;-78
2023/04/08 09:42:17;;;;;;;;;;;;;;;10.35;51.78;94777.78;5069977;23;19960;-79
2023/04/08 09:44:19;;;;;;;;;;;;;;;10.41;51.73;94776.31;5046565;23;19945;-81
2023/04/08 09:46:27;;;;;;;;;;;;;;;10.50;51.56;94774.59;5045562;23;20190;-80
2023/04/08 09:48:29;;;;;;;;;;;;;;;10.51;51.45;94771.78;5068907;23;19949;-82
2023/04/08 09:50:31;;;;;;;;;;;;;;;10.99;50.96;94778.22;5069969;23;19921;-84
2023/04/08 09:52:33;;;;;;;;;;;;;;;11.25;49.70;94779.91;5044915;23;20351;-82
2023/04/08 09:54:34;;;;;;;;;;;;;;;10.98;50.28;94775.75;5051228;23;19922;-82
2023/04/08 09:56:39;;;;;;;;;;;;;;;10.28;51.73;94770.66;5047573;23;19922;-80
2023/04/08 09:58:46;;;;;;;;;;;;;;;9.80;53.06;94764.97;5073723;23;19920;-82
2023/04/08 10:00:49;;;;;;;;;;;;;;;9.95;52.71;94768.66;5049233;23;19952;-81
2023/04/08 10:03:06;;;;;;;;;;;;;;;10.40;52.17;94765.03;5022551;23;19960;-80
2023/04/08 10:05:09;;;;;;;;;;;;;;;10.75;51.67;94773.69;5070613;23;19929;-79
2023/04/08 10:07:11;;;;;;;;;;;;;;;10.85;50.64;94765.72;5044383;23;19992;-82
2023/04/08 10:09:13;;;;;;;;;;;;;;;10.58;51.03;94764.97;5070206;23;20231;-80
2023/04/08 10:11:15;;;;;;;;;;;;;;;10.55;51.32;94765.28;5071183;23;19921;-79
2023/04/08 10:13:16;;;;;;;;;;;;;;;10.64;51.30;94768.75;5071718;23;19931;-79
2023/04/08 10:15:24;;;;;;;;;;;;;;;10.85;50.97;94770.97;5073497;23;19921;-83
2023/04/08 10:17:34;;;;;;;;;;;;;;;11.23;50.68;94768.78;5044783;23;19976;-81
2023/04/08 10:19:40;;;;;;;;;;;;;;;11.17;49.70;94761.53;5068519;23;19945;-80
2023/04/08 10:21:46;;;;;;;;;;;;;;;11.03;50.37;94765.59;5069993;23;20005;-82
2023/04/08 10:23:57;;;;;;;;;;;;;;;10.86;50.79;94760.31;5069328;23;19925;-83
2023/04/08 10:25:59;;;;;;;;;;;;;;;10.50;52.26;94754.47;5045142;23;20321;-79
2023/04/08 10:28:22;;;;;;;;;;;;;;;10.54;52.12;94761.03;5019885;23;20333;-79
2023/04/08 10:30:26;;;;;;;;;;;;;;;10.89;51.61;94764.41;5045531;23;19921;-81
2023/04/08 10:32:29;;;;;;;;;;;;;;;11.19;50.81;94760.41;5070647;23;19920;-82
2023/04/08 10:34:30;;;;;;;;;;;;;;;11.24;49.96;94754.66;5045517;23;20380;-80
2023/04/08 10:36:32;;;;;;;;;;;;;;;11.24;49.82;94758.09;5071372;23;19921;-84
2023/04/08 10:38:33;;;;;;;;;;;;;;;11.38;50.12;94750.56;5051519;23;19952;-80
2023/04/08 10:40:38;;;;;;;;;;;;;;;11.48;50.22;94746.81;5072115;23;19920;-82
2023/04/08 10:42:39;;;;;;;;;;;;;;;11.56;49.28;94753.06;5070151;23;19925;-81
2023/04/08 10:44:43;;;;;;;;;;;;;;;11.71;49.07;94743.53;5076142;23;19932;-80